Time;durP1;ratioP1;P1;durP2;ratioP2;P2;SDS_P1;SDS_P2;PMS_P1;PMS_P2;Temp;Humidity;BMP_temperature;BMP_pressure;BME280_temperature;BME280_humidity;BME280_pressure;Samples;Min_cycle;Max_cycle;Signal;HPM_P1;HPM_P2
2022/11/19 00:01:25;;;;;;;12.13;4.63;;;;;;;12.75;64.42;100426.03;5013669;28;20038;-60
2022/11/19 00:03:52;;;;;;;10.57;3.85;;;;;;;12.84;65.14;100432.34;5015869;28;20034;-68
2022/11/19 00:06:22;;;;;;;11.43;3.97;;;;;;;12.80;65.32;100419.50;4997426;28;20504;-69
2022/11/19 00:08:49;;;;;;;;;;;;;;;12.84;65.10;100426.81;5013439;28;20050;-61
2022/11/19 00:14:09;;;;;;;10.93;4.28;;;;;;;12.82;64.64;100425.50;5003304;28;20054;-60
2022/11/19 00:16:36;;;;;;;9.48;3.90;;;;;;;13.10;63.95;100424.69;5014736;28;20049;-60
2022/11/19 00:19:04;;;;;;;12.55;3.80;;;;;;;13.04;64.01;100423.25;5006913;28;20076;-60
2022/11/19 00:21:31;;;;;;;9.95;3.63;;;;;;;13.04;64.11;100419.72;5004594;28;20046;-60
2022/11/19 00:23:59;;;;;;;11.80;4.45;;;;;;;12.68;64.53;100419.41;5013421;28;20054;-61
2022/11/19 00:26:26;;;;;;;9.23;4.18;;;;;;;12.73;65.11;100417.28;5014965;28;20080;-61
2022/11/19 00:28:54;;;;;;;9.15;3.80;;;;;;;12.69;65.25;100410.00;5013942;28;20046;-61
2022/11/19 00:31:21;;;;;;;10.55;4.00;;;;;;;12.72;65.16;100418.44;5007295;28;20513;-59
2022/11/19 00:33:49;;;;;;;9.30;3.70;;;;;;;12.73;64.91;100414.50;5015306;28;20073;-58
2022/11/19 00:36:17;;;;;;;10.15;3.75;;;;;;;12.63;65.15;100417.66;5013029;28;20046;-61
2022/11/19 00:38:44;;;;;;;11.48;3.55;;;;;;;13.14;64.48;100427.59;5013058;28;20069;-59
2022/11/19 00:41:11;;;;;;;9.68;3.78;;;;;;;12.80;65.71;100422.25;5013324;28;20054;-60
2022/11/19 00:43:48;;;;;;;9.25;3.50;;;;;;;13.07;64.40;100432.84;5015467;28;20168;-61
2022/11/19 00:46:23;;;;;;;11.88;4.10;;;;;;;12.91;64.40;100418.78;5005221;28;20094;-60
2022/11/19 00:48:52;;;;;;;13.65;4.05;;;;;;;12.54;65.71;100419.66;5003214;28;20057;-62
2022/11/19 00:51:21;;;;;;;7.57;3.30;;;;;;;12.74;64.88;100418.91;5012594;28;20049;-58
2022/11/19 00:53:48;;;;;;;9.30;4.00;;;;;;;12.71;64.61;100425.09;5012425;28;20057;-58
2022/11/19 00:56:17;;;;;;;10.23;4.30;;;;;;;12.50;66.24;100427.00;5003314;28;20053;-59
2022/11/19 00:58:45;;;;;;;11.70;4.37;;;;;;;12.48;65.69;100426.53;5014686;28;20050;-59
2022/11/19 01:01:14;;;;;;;10.90;4.75;;;;;;;12.07;65.84;100421.69;5002750;28;20053;-58
2022/11/19 01:03:44;;;;;;;11.25;3.90;;;;;;;12.07;66.53;100429.13;5012859;28;20072;-58
2022/11/19 01:06:13;;;;;;;9.43;3.67;;;;;;;12.24;67.18;100424.38;5004688;28;20046;-59
2022/11/19 01:08:50;;;;;;;8.98;3.90;;;;;;;12.31;65.84;100427.41;5014629;28;20057;-59
2022/11/19 01:11:22;;;;;;;8.75;3.42;;;;;;;12.40;66.34;100430.97;5013979;28;20073;-59
2022/11/19 01:13:50;;;;;;;9.98;3.38;;;;;;;12.56;65.72;100433.13;5009636;28;20074;-59
2022/11/19 01:16:19;;;;;;;10.18;3.65;;;;;;;12.49;65.54;100430.91;5005272;28;20568;-58
2022/11/19 01:18:47;;;;;;;10.23;3.80;;;;;;;12.60;65.73;100439.63;4995804;28;20417;-59
2022/11/19 01:21:16;;;;;;;10.50;3.67;;;;;;;12.87;64.71;100439.94;5003257;28;20056;-68
2022/11/19 01:23:44;;;;;;;8.93;3.85;;;;;;;12.54;65.15;100439.00;4981335;28;20042;-67
2022/11/19 01:26:12;;;;;;;8.68;3.80;;;;;;;12.58;65.11;100439.97;5015795;28;20058;-59
2022/11/19 01:28:39;;;;;;;9.55;3.85;;;;;;;12.69;64.85;100437.63;5013617;28;20037;-58
2022/11/19 01:31:17;;;;;;;11.95;4.53;;;;;;;12.75;64.84;100436.28;5000121;28;20414;-58
2022/11/19 01:33:45;;;;;;;10.15;3.78;;;;;;;13.07;64.70;100444.72;5009068;28;20054;-59
2022/11/19 01:36:15;;;;;;;9.73;4.15;;;;;;;12.26;65.37;100446.13;5014771;28;20054;-59
2022/11/19 01:38:42;;;;;;;9.27;4.07;;;;;;;12.47;66.75;100449.75;5008197;28;20516;-59
2022/11/19 01:41:09;;;;;;;12.32;4.50;;;;;;;12.01;64.91;100455.31;5015219;28;20401;-59
2022/11/19 01:43:48;;;;;;;14.23;3.95;;;;;;;12.06;67.81;100458.72;5017412;28;20046;-58
2022/11/19 01:46:23;;;;;;;13.65;3.65;;;;;;;12.05;66.82;100457.06;5007997;28;20058;-58
2022/11/19 01:48:55;;;;;;;8.77;3.60;;;;;;;12.15;67.15;100451.19;5010873;28;20054;-59
2022/11/19 01:51:50;;;;;;;11.25;3.40;;;;;;;12.05;66.08;100457.06;5015982;28;20054;-59
2022/11/19 01:54:32;;;;;;;9.40;3.30;;;;;;;12.29;66.20;100462.06;5004636;28;20065;-58
2022/11/19 01:57:02;;;;;;;9.27;3.70;;;;;;;12.04;66.87;100449.13;5017692;28;20050;-68
2022/11/19 01:59:30;;;;;;;11.32;3.65;;;;;;;12.23;66.50;100455.06;5016979;28;20473;-68
2022/11/19 02:01:57;;;;;;;9.30;4.20;;;;;;;11.79;67.54;100461.03;5015384;28;20525;-68
2022/11/19 02:04:26;;;;;;;7.68;3.28;;;;;;;11.90;68.57;100454.84;5009516;28;20046;-67
2022/11/19 02:06:54;;;;;;;11.40;3.85;;;;;;;12.03;67.54;100451.06;5012386;28;20058;-67
2022/11/19 02:09:22;;;;;;;10.68;3.53;;;;;;;11.82;66.92;100458.44;5008316;28;20070;-58
2022/11/19 02:12:08;;;;;;;12.13;3.30;;;;;;;12.28;67.14;100449.38;5013917;28;20049;-59
2022/11/19 02:14:41;;;;;;;7.63;3.25;;;;;;;12.13;66.27;100461.75;5012022;28;20121;-68
2022/11/19 02:17:20;;;;;;;9.73;3.25;;;;;;;12.30;66.77;100461.72;5006338;28;20074;-68
2022/11/19 02:19:47;;;;;;;12.85;3.92;;;;;;;12.09;66.53;100460.81;4999478;28;20424;-59
2022/11/19 02:22:36;;;;;;;10.68;3.85;;;;;;;12.18;66.84;100463.53;5016633;28;20050;-59
2022/11/19 02:25:09;;;;;;;12.75;3.75;;;;;;;12.37;66.45;100458.44;5016561;28;20061;-59
2022/11/19 02:27:55;;;;;;;10.38;3.33;;;;;;;12.19;67.25;100460.44;5016008;28;20069;-59
2022/11/19 02:30:22;;;;;;;8.90;3.53;;;;;;;12.26;67.56;100457.16;5008073;28;20047;-58
2022/11/19 02:33:04;;;;;;;9.50;3.50;;;;;;;12.21;67.69;100454.59;5011043;28;20093;-68
2022/11/19 02:35:55;;;;;;;10.18;3.38;;;;;;;12.17;67.04;100465.47;5015920;28;20064;-68
2022/11/19 02:38:29;;;;;;;9.00;2.97;;;;;;;12.58;66.77;100464.84;4979321;28;20054;-68
2022/11/19 02:41:32;;;;;;;10.07;3.25;;;;;;;12.76;64.92;100458.06;4996582;28;20433;-69
2022/11/19 02:44:57;;;;;;;10.32;3.20;;;;;;;12.74;65.26;100456.78;5006683;28;20054;-67
2022/11/19 02:46:39;;;;;;;10.90;3.80;;;;;;;12.81;65.02;100460.66;5004907;28;20056;-68
2022/11/19 02:49:07;;;;;;;10.45;3.85;;;;;;;12.74;64.82;100462.31;5004933;28;20545;-68
2022/11/19 02:51:35;;;;;;;6.40;2.90;;;;;;;12.87;65.07;100459.28;5014763;28;20042;-69
2022/11/19 02:54:03;;;;;;;10.63;3.00;;;;;;;12.88;64.38;100449.88;5015396;28;20057;-69
2022/11/19 02:56:51;;;;;;;6.88;3.10;;;;;;;13.11;64.50;100456.72;5014514;28;20054;-68
2022/11/19 03:05:11;;;;;;;7.93;3.47;;;;;;;13.22;63.64;100452.41;5002698;28;20061;-68
2022/11/19 03:07:39;;;;;;;6.80;2.90;;;;;;;12.85;64.74;100453.28;5015751;28;20832;-58
2022/11/19 03:10:09;;;;;;;6.53;2.50;;;;;;;12.97;64.86;100453.38;5013698;28;20133;-59
2022/11/19 03:12:44;;;;;;;9.88;2.88;;;;;;;13.14;64.22;100453.31;5014584;28;20057;-67
2022/11/19 03:18:32;;;;;;;7.97;3.05;;;;;;;12.63;64.55;100459.13;5002133;28;20049;-59
2022/11/19 03:21:22;;;;;;;8.48;2.83;;;;;;;13.00;64.24;100465.72;5014124;28;20061;-59
2022/11/19 03:23:56;;;;;;;6.97;2.70;;;;;;;12.92;65.23;100467.38;5004925;28;20046;-58
2022/11/19 03:26:31;;;;;;;9.02;2.53;;;;;;;12.73;66.10;100472.53;5008508;28;20084;-59
2022/11/19 03:29:02;;;;;;;9.52;3.10;;;;;;;12.69;65.67;100466.09;5006236;28;20060;-58
2022/11/19 03:31:30;;;;;;;10.68;2.72;;;;;;;12.65;65.72;100467.88;5001930;28;20108;-59
2022/11/19 03:34:01;;;;;;;11.73;3.00;;;;;;;12.23;66.69;100469.69;4998630;28;20058;-68
2022/11/19 03:36:31;;;;;;;7.70;2.80;;;;;;;12.79;65.56;100473.16;5014073;28;20046;-68
2022/11/19 03:39:01;;;;;;;12.55;3.08;;;;;;;12.65;65.89;100470.66;5014390;28;20449;-68
2022/11/19 03:41:29;;;;;;;10.02;2.78;;;;;;;12.00;67.15;100470.25;5009724;28;20050;-67
2022/11/19 03:44:01;;;;;;;12.23;3.10;;;;;;;12.46;68.29;100471.03;5014614;28;20053;-60
2022/11/19 03:46:29;;;;;;;11.00;3.58;;;;;;;12.44;65.70;100480.81;4997520;28;20053;-58
2022/11/19 03:48:58;;;;;;;11.65;2.85;;;;;;;12.48;65.06;100474.28;5013246;28;20564;-68
2022/11/19 03:51:39;;;;;;;13.13;3.60;;;;;;;12.08;66.25;100481.25;4981812;28;20034;-59
2022/11/19 03:54:07;;;;;;;11.10;2.95;;;;;;;12.29;67.06;100473.88;5015937;28;20064;-69
2022/11/19 03:56:37;;;;;;;11.57;3.85;;;;;;;12.35;66.97;100478.09;5013627;28;20050;-69
2022/11/19 03:59:04;;;;;;;10.23;3.53;;;;;;;12.14;67.17;100479.94;5014778;28;20050;-69
2022/11/19 04:01:35;;;;;;;;;;;;;;;12.52;66.18;100487.47;5025133;28;20050;-60
2022/11/19 04:06:49;;;;;;;8.30;2.70;;;;;;;12.69;65.64;100482.66;5035183;28;20125;-59
2022/11/19 04:09:17;;;;;;;12.73;4.00;;;;;;;12.42;65.15;100489.44;5034066;28;20057;-61
2022/11/19 04:11:45;;;;;;;10.90;3.65;;;;;;;12.30;65.61;100486.56;5031415;28;20056;-68
2022/11/19 04:14:11;;;;;;;6.63;2.90;;;;;;;12.74;65.65;100482.47;5031828;28;20045;-57
2022/11/19 04:16:38;;;;;;;11.18;3.22;;;;;;;12.80;66.17;100488.59;4993593;28;20548;-58
2022/11/19 04:19:05;;;;;;;10.45;3.38;;;;;;;13.00;65.84;100487.84;4996283;28;20050;-67
2022/11/19 04:21:33;;;;;;;7.45;2.58;;;;;;;13.20;64.64;100489.84;5005032;28;20049;-67
2022/11/19 04:24:00;;;;;;;8.82;3.05;;;;;;;13.18;64.43;100492.16;5014927;28;20054;-68
2022/11/19 04:26:27;;;;;;;10.00;3.67;;;;;;;12.25;63.72;100497.78;5012707;28;20058;-67
2022/11/19 04:28:55;;;;;;;7.80;3.25;;;;;;;11.94;66.14;100494.44;4982059;28;20046;-67
2022/11/19 04:31:22;;;;;;;8.55;2.97;;;;;;;12.21;66.79;100496.81;5023469;28;20689;-67
2022/11/19 04:33:49;;;;;;;8.32;3.58;;;;;;;12.27;66.45;100498.25;5035347;28;20053;-68
2022/11/19 04:36:16;;;;;;;10.70;3.58;;;;;;;12.41;65.77;100501.63;5033706;28;20053;-67
2022/11/19 04:38:43;;;;;;;13.23;3.45;;;;;;;12.56;65.59;100507.75;5033802;28;20052;-59
2022/11/19 04:41:11;;;;;;;9.38;2.70;;;;;;;12.19;67.50;100510.16;5015052;28;20049;-60
2022/11/19 04:43:38;;;;;;;10.45;3.00;;;;;;;12.56;66.96;100504.97;5014989;28;20046;-59
2022/11/19 04:46:05;;;;;;;9.75;2.97;;;;;;;12.43;64.24;100506.81;5013905;28;20050;-59
2022/11/19 04:48:33;;;;;;;10.77;3.17;;;;;;;12.37;66.82;100508.16;5011863;28;20062;-59
2022/11/19 04:51:00;;;;;;;9.45;3.28;;;;;;;12.46;66.15;100506.97;5017015;28;20041;-67
2022/11/19 04:53:27;;;;;;;9.35;3.28;;;;;;;12.49;65.73;100511.03;5034522;28;20042;-67
2022/11/19 04:55:54;;;;;;;11.02;3.03;;;;;;;12.38;66.70;100518.03;5022618;28;20044;-67
2022/11/19 04:58:22;;;;;;;11.60;3.00;;;;;;;12.48;66.75;100515.72;5013764;28;20057;-60
2022/11/19 05:00:49;;;;;;;8.18;3.13;;;;;;;12.39;65.66;100522.44;5012927;28;20074;-68
2022/11/19 05:03:16;;;;;;;12.90;3.25;;;;;;;12.42;65.37;100522.59;5013417;28;20125;-67
2022/11/19 05:05:44;;;;;;;12.70;3.05;;;;;;;11.94;65.99;100527.56;5014900;28;20065;-59
2022/11/19 05:08:13;;;;;;;9.20;3.13;;;;;;;12.16;67.43;100530.16;5013228;28;20050;-60
2022/11/19 05:10:42;;;;;;;8.90;2.85;;;;;;;12.28;67.02;100532.22;5013628;28;20296;-60
2022/11/19 05:13:09;;;;;;;9.50;3.00;;;;;;;12.65;66.55;100533.38;5014451;28;20509;-59
2022/11/19 05:15:36;;;;;;;8.38;2.92;;;;;;;13.05;65.24;100538.25;5014311;28;20643;-60
2022/11/19 05:18:03;;;;;;;11.40;2.65;;;;;;;12.74;65.67;100536.94;4993833;28;20509;-58
2022/11/19 05:20:31;;;;;;;11.95;3.00;;;;;;;12.80;65.16;100539.16;4996033;28;20054;-67
2022/11/19 05:22:58;;;;;;;10.15;2.92;;;;;;;12.81;65.23;100537.22;5013939;28;21028;-68
2022/11/19 05:25:25;;;;;;;10.55;2.92;;;;;;;12.97;65.49;100533.53;5010812;28;20144;-67
2022/11/19 05:27:52;;;;;;;10.93;2.70;;;;;;;13.04;65.30;100533.84;5013420;28;20049;-59
2022/11/19 05:30:20;;;;;;;8.77;3.05;;;;;;;13.29;64.98;100538.44;5015642;28;20061;-59
2022/11/19 05:32:47;;;;;;;10.38;3.20;;;;;;;13.12;65.58;100529.44;5034106;28;20644;-59
2022/11/19 05:35:14;;;;;;;7.32;2.70;;;;;;;13.17;64.74;100535.59;5033156;28;20050;-59
2022/11/19 05:37:41;;;;;;;9.23;2.90;;;;;;;13.11;64.69;100534.16;5033067;28;20057;-59
2022/11/19 05:40:09;;;;;;;8.52;3.00;;;;;;;13.12;65.14;100534.97;5002219;28;20058;-59
2022/11/19 05:42:36;;;;;;;26.80;3.22;;;;;;;13.07;64.13;100541.50;5012367;28;20058;-59
2022/11/19 05:45:04;;;;;;;11.07;2.63;;;;;;;12.90;65.54;100530.50;5014676;28;20054;-59
2022/11/19 05:47:32;;;;;;;8.02;2.70;;;;;;;13.06;65.34;100533.53;4997056;28;20069;-68
2022/11/19 05:50:00;;;;;;;9.65;2.70;;;;;;;12.91;65.29;100528.53;4995537;28;20059;-68
2022/11/19 05:52:27;;;;;;;7.85;2.85;;;;;;;12.86;65.56;100526.78;5026637;28;20049;-59
2022/11/19 05:54:54;;;;;;;8.35;2.75;;;;;;;12.58;65.96;100528.38;5005856;28;20306;-68
2022/11/19 05:57:21;;;;;;;10.65;3.00;;;;;;;12.93;65.76;100526.25;5014412;28;20053;-69
2022/11/19 05:59:49;;;;;;;7.93;2.50;;;;;;;12.75;65.85;100528.31;5014993;28;20497;-68
2022/11/19 06:02:16;;;;;;;12.77;3.28;;;;;;;12.41;66.88;100531.22;5013776;28;20080;-68
2022/11/19 06:04:44;;;;;;;8.15;2.80;;;;;;;12.32;67.36;100528.47;5014791;28;20497;-68
2022/11/19 06:07:11;;;;;;;5.93;2.63;;;;;;;12.78;66.88;100529.59;5012946;28;20057;-68
2022/11/19 06:09:38;;;;;;;6.85;2.58;;;;;;;12.75;66.45;100531.06;5012354;28;20054;-60
2022/11/19 06:12:06;;;;;;;6.95;2.47;;;;;;;12.71;65.97;100530.09;5014799;28;20054;-59
2022/11/19 06:14:33;;;;;;;7.38;2.70;;;;;;;12.46;66.84;100520.78;5017149;28;20049;-59
2022/11/19 06:17:00;;;;;;;9.68;3.00;;;;;;;12.59;67.09;100520.91;5008699;28;20066;-69
2022/11/19 06:19:28;;;;;;;7.75;3.17;;;;;;;12.61;66.47;100529.66;4998672;28;20050;-59
2022/11/19 06:21:56;;;;;;;11.52;3.45;;;;;;;12.36;66.63;100534.94;5011507;28;20054;-59
2022/11/19 06:24:23;;;;;;;11.18;3.53;;;;;;;12.10;67.94;100542.47;5014286;28;20044;-59
2022/11/19 06:26:50;;;;;;;11.40;3.50;;;;;;;12.16;68.33;100540.38;5017228;28;20491;-60
2022/11/19 06:29:17;;;;;;;11.05;2.95;;;;;;;12.37;68.23;100541.28;4999993;28;20054;-58
2022/11/19 06:31:45;;;;;;;7.18;3.15;;;;;;;12.35;67.78;100535.28;5029426;28;20057;-68
2022/11/19 06:34:13;;;;;;;9.90;2.58;;;;;;;12.44;67.99;100545.19;5035833;28;20049;-69
2022/11/19 06:36:40;;;;;;;6.85;2.42;;;;;;;12.72;67.14;100550.25;5037232;28;20708;-69
2022/11/19 06:39:15;;;;;;;7.85;2.63;;;;;;;12.73;66.89;100558.22;5023645;28;20470;-68
2022/11/19 06:41:43;;;;;;;8.00;2.80;;;;;;;12.84;66.63;100565.00;5009183;28;20050;-59
2022/11/19 06:44:10;;;;;;;11.20;3.08;;;;;;;12.17;66.86;100569.59;5015729;28;20502;-68
2022/11/19 06:46:37;;;;;;;8.50;2.90;;;;;;;12.17;68.98;100575.09;5007578;28;20515;-68
2022/11/19 06:49:05;;;;;;;8.07;3.03;;;;;;;12.76;68.10;100571.38;4997199;28;20054;-68
2022/11/19 06:51:33;;;;;;;7.13;2.70;;;;;;;12.74;66.86;100570.91;5014802;28;20053;-59
2022/11/19 06:54:00;;;;;;;6.60;2.90;;;;;;;12.77;66.91;100588.78;5036214;28;20052;-59
2022/11/19 06:56:27;;;;;;;12.10;3.15;;;;;;;12.93;66.43;100589.84;5022969;28;20050;-68
2022/11/19 06:58:57;;;;;;;11.38;3.13;;;;;;;13.09;65.64;100579.88;5006797;28;20072;-68
2022/11/19 07:01:24;;;;;;;8.18;2.38;;;;;;;13.24;66.14;100576.53;5008449;28;20050;-68
2022/11/19 07:03:51;;;;;;;10.43;3.30;;;;;;;13.42;65.23;100581.63;5031695;28;20058;-68
2022/11/19 07:06:18;;;;;;;7.93;2.95;;;;;;;13.53;63.55;100580.09;5016733;28;20050;-68
2022/11/19 07:08:46;;;;;;;12.30;3.35;;;;;;;13.10;65.05;100579.56;5016891;28;20062;-68
2022/11/19 07:11:25;;;;;;;9.15;3.35;;;;;;;12.94;66.40;100589.50;5014302;28;20060;-60
2022/11/19 07:13:56;;;;;;;7.60;2.70;;;;;;;13.30;65.72;100586.28;5031629;28;20050;-60
2022/11/19 07:16:25;;;;;;;8.85;2.92;;;;;;;13.22;65.51;100600.94;5011432;28;20689;-60
2022/11/19 07:18:52;;;;;;;12.30;4.68;;;;;;;12.65;63.39;100608.00;4996129;28;20655;-58
2022/11/19 07:21:19;;;;;;;10.70;3.92;;;;;;;11.52;68.89;100610.31;5020911;28;20062;-68
2022/11/19 07:23:47;;;;;;;8.45;3.28;;;;;;;12.34;69.73;100609.03;5014823;28;20053;-68
2022/11/19 07:26:14;;;;;;;11.38;3.58;;;;;;;12.59;66.91;100606.56;5014790;28;20054;-67
2022/11/19 07:28:41;;;;;;;8.82;3.47;;;;;;;12.53;68.25;100608.69;5015372;28;20054;-68
2022/11/19 07:31:09;;;;;;;12.23;4.25;;;;;;;12.63;66.81;100616.63;5023967;28;20041;-58
2022/11/19 07:33:38;;;;;;;10.07;3.55;;;;;;;12.78;67.33;100618.06;5035968;28;20430;-67
2022/11/19 07:36:07;;;;;;;9.02;3.28;;;;;;;13.19;66.19;100613.50;5034287;28;20056;-59
2022/11/19 07:38:37;;;;;;;8.63;3.47;;;;;;;12.95;65.72;100626.28;5035963;28;20053;-58
2022/11/19 07:43:50;;;;;;;9.00;3.72;;;;;;;13.15;65.59;100623.59;5015799;28;20046;-68
2022/11/19 07:46:18;;;;;;;10.07;3.63;;;;;;;13.14;65.60;100633.06;5009439;28;20050;-68
2022/11/19 07:48:45;;;;;;;13.43;3.70;;;;;;;12.62;67.49;100633.53;4995142;28;20058;-68
2022/11/19 07:51:12;;;;;;;14.10;4.13;;;;;;;12.59;67.21;100632.22;5008040;28;20058;-68
2022/11/19 07:53:41;;;;;;;11.38;3.75;;;;;;;12.61;66.80;100638.25;5034551;28;20052;-68
2022/11/19 07:56:08;;;;;;;13.00;3.70;;;;;;;12.77;67.22;100644.88;5022568;28;20417;-69
2022/11/19 07:58:36;;;;;;;7.28;3.25;;;;;;;12.77;67.01;100650.41;5016327;28;20493;-69
2022/11/19 08:01:25;;;;;;;7.95;3.10;;;;;;;13.06;65.11;100644.13;5006917;28;20061;-69
2022/11/19 08:03:53;;;;;;;10.75;3.50;;;;;;;12.84;65.97;100641.59;5015773;28;20046;-69
2022/11/19 08:06:26;;;;;;;15.25;3.67;;;;;;;12.65;66.04;100664.09;5015593;28;20062;-69
2022/11/19 08:08:57;;;;;;;11.88;3.60;;;;;;;12.54;66.42;100668.31;5014361;28;20050;-69
2022/11/19 08:11:24;;;;;;;9.57;3.60;;;;;;;12.72;66.68;100672.69;5013656;28;20053;-68
2022/11/19 08:13:52;;;;;;;9.68;3.35;;;;;;;13.08;66.20;100670.31;5012626;28;20054;-68
2022/11/19 08:19:08;;;;;;;6.60;3.08;;;;;;;12.26;67.28;100675.34;4996159;28;20050;-69
2022/11/19 08:21:39;;;;;;;6.75;2.85;;;;;;;12.88;67.00;100679.31;5017971;28;20527;-68
2022/11/19 08:24:08;;;;;;;10.55;3.25;;;;;;;13.01;65.68;100683.81;5017872;28;20053;-69
2022/11/19 08:26:36;;;;;;;8.20;3.00;;;;;;;13.18;65.73;100692.06;4998583;28;20050;-69
2022/11/19 08:29:04;;;;;;;11.23;3.00;;;;;;;13.32;65.53;100695.44;5024159;28;20449;-69
2022/11/19 08:31:31;;;;;;;9.98;2.90;;;;;;;13.22;64.72;100693.03;4995061;28;20054;-69
2022/11/19 08:34:02;;;;;;;10.40;3.60;;;;;;;13.32;64.84;100697.38;5027602;28;20056;-69
2022/11/19 08:36:30;;;;;;;9.05;3.55;;;;;;;12.92;65.30;100698.81;5010047;28;20054;-69
2022/11/19 08:38:59;;;;;;;8.27;3.72;;;;;;;12.81;66.08;100703.88;4992047;28;20042;-69
2022/11/19 08:44:13;;;;;;;14.32;8.57;;;;;;;13.35;64.63;100714.13;5020166;28;20052;-69
2022/11/19 08:46:42;;;;;;;11.45;4.38;;;;;;;13.16;65.07;100701.88;5015353;28;20601;-68
2022/11/19 08:49:10;;;;;;;12.15;3.47;;;;;;;13.01;64.11;100711.47;5027772;28;20041;-70
2022/11/19 08:51:38;;;;;;;10.13;3.83;;;;;;;12.31;66.98;100717.41;5018844;28;20058;-68
2022/11/19 08:54:05;;;;;;;10.27;3.80;;;;;;;13.33;67.43;100715.63;5003332;28;20043;-70
2022/11/19 08:56:32;;;;;;;10.48;4.70;;;;;;;13.59;62.77;100708.00;5011696;28;20049;-70
2022/11/19 08:58:59;;;;;;;12.35;4.30;;;;;;;13.49;63.54;100717.50;5010459;28;20042;-62
2022/11/19 09:01:29;;;;;;;10.48;4.07;;;;;;;13.46;64.15;100718.16;5012650;28;20054;-62
2022/11/19 09:03:57;;;;;;;12.75;4.03;;;;;;;13.31;63.21;100718.72;5012402;28;20184;-64
2022/11/19 09:06:24;;;;;;;10.98;4.40;;;;;;;13.48;64.14;100715.06;5006702;28;20594;-62
2022/11/19 09:08:52;;;;;;;11.23;3.88;;;;;;;13.30;65.13;100719.06;5012719;28;20398;-69
2022/11/19 09:11:20;;;;;;;12.90;4.30;;;;;;;11.81;67.61;100730.03;5011450;28;20054;-68
2022/11/19 09:13:47;;;;;;;17.90;4.75;;;;;;;12.48;69.03;100724.06;5013974;28;20046;-69
2022/11/19 09:16:15;;;;;;;9.50;4.22;;;;;;;12.48;66.87;100728.44;4991269;28;20560;-68
2022/11/19 09:18:42;;;;;;;22.65;6.72;;;;;;;12.79;67.70;100719.97;5010342;28;20042;-70
2022/11/19 09:21:10;;;;;;;14.18;5.88;;;;;;;13.05;66.44;100725.47;5011146;28;20061;-70
2022/11/19 09:23:38;;;;;;;13.60;4.80;;;;;;;13.22;65.24;100728.19;5004571;28;20042;-71
2022/11/19 09:26:08;;;;;;;12.80;4.30;;;;;;;13.41;63.88;100723.88;4992463;28;20054;-70
2022/11/19 09:28:35;;;;;;;12.32;4.45;;;;;;;13.08;64.52;100716.50;5015126;28;20050;-72
2022/11/19 09:31:09;;;;;;;9.48;4.45;;;;;;;12.93;64.72;100719.78;5006654;28;20050;-71
2022/11/19 09:33:38;;;;;;;13.07;4.38;;;;;;;12.92;64.70;100723.72;4995308;28;20050;-65
2022/11/19 09:36:05;;;;;;;10.90;4.07;;;;;;;13.00;64.48;100729.22;5004785;28;20046;-66
2022/11/19 09:38:35;;;;;;;11.43;3.58;;;;;;;12.51;64.38;100726.19;5001793;28;20046;-65
2022/11/19 09:41:10;;;;;;;;;;;;;;;12.99;65.08;100733.09;5002232;28;20208;-66
2022/11/19 09:44:08;;;;;;;10.65;3.83;;;;;;;13.31;63.00;100735.31;5003145;28;20572;-68
2022/11/19 09:46:50;;;;;;;9.50;3.10;;;;;;;12.58;63.71;100734.78;5004356;28;20054;-68
2022/11/19 09:49:23;;;;;;;11.60;3.50;;;;;;;13.00;64.40;100748.56;5005039;28;20053;-67
2022/11/19 09:51:55;;;;;;;10.80;3.50;;;;;;;13.19;63.45;100739.91;5013334;28;20068;-66
2022/11/19 09:54:22;;;;;;;14.20;3.85;;;;;;;12.92;62.96;100743.84;5012266;28;20049;-66
2022/11/19 09:56:53;;;;;;;14.10;4.03;;;;;;;13.24;63.30;100746.09;5002870;28;20046;-67
2022/11/19 09:59:26;;;;;;;12.68;3.30;;;;;;;13.45;62.44;100751.69;5003016;28;20422;-66
2022/11/19 10:01:54;;;;;;;9.00;3.10;;;;;;;12.98;63.53;100744.50;5004278;28;20054;-66
2022/11/19 10:04:24;;;;;;;12.55;3.70;;;;;;;13.28;62.96;100749.81;5005961;28;20045;-68
2022/11/19 10:06:51;;;;;;;;;;;;;;;12.91;64.04;100742.22;5014597;28;20054;-68
2022/11/19 10:09:38;;;;;;;21.33;9.07;;;;;;;13.17;63.26;100744.97;5011552;28;19921;-67
2022/11/19 10:12:11;;;;;;;24.70;14.25;;;;;;;13.43;62.21;100738.19;5012699;28;20081;-66
2022/11/19 10:14:57;;;;;;;12.63;3.75;;;;;;;13.50;62.35;100740.44;5002953;28;20046;-66
2022/11/19 10:18:00;;;;;;;10.43;4.00;;;;;;;13.42;61.65;100749.59;5010107;28;20454;-66
2022/11/19 10:20:33;;;;;;;12.63;3.88;;;;;;;12.90;63.73;100746.13;5012845;28;20524;-67
2022/11/19 10:23:12;;;;;;;10.32;4.18;;;;;;;13.23;62.99;100747.22;5012084;28;20057;-66
2022/11/19 10:25:43;;;;;;;9.67;3.60;;;;;;;13.52;62.12;100736.22;5031591;28;20060;-66
2022/11/19 10:28:15;;;;;;;11.20;3.85;;;;;;;13.67;61.55;100737.59;5013209;28;20065;-66
2022/11/19 10:30:49;;;;;;;10.73;4.10;;;;;;;13.72;60.89;100740.16;5006828;28;20045;-65
2022/11/19 10:33:36;;;;;;;11.10;4.18;;;;;;;13.77;60.88;100740.00;5010040;28;20089;-66
2022/11/19 10:36:08;;;;;;;9.35;3.40;;;;;;;13.46;61.96;100737.53;5014302;28;20056;-66
2022/11/19 10:38:48;;;;;;;9.65;4.22;;;;;;;13.68;61.13;100739.22;5003737;28;20053;-66
2022/11/19 10:41:26;;;;;;;12.23;4.07;;;;;;;13.83;60.93;100732.28;5011921;28;20532;-66
2022/11/19 10:44:00;;;;;;;12.27;3.90;;;;;;;12.14;64.74;100739.50;5014222;28;20489;-66
2022/11/19 10:46:28;;;;;;;8.15;3.20;;;;;;;12.89;64.48;100725.16;5003047;28;20054;-65
2022/11/19 10:48:57;;;;;;;12.05;3.80;;;;;;;13.32;62.73;100736.94;4994001;28;20045;-66
2022/11/19 10:51:30;;;;;;;11.13;3.67;;;;;;;12.07;65.72;100732.81;5014082;28;20057;-67
2022/11/19 10:53:57;;;;;;;9.57;3.10;;;;;;;12.88;64.85;100731.03;5015537;28;20046;-66
2022/11/19 10:56:43;;;;;;;9.88;3.53;;;;;;;11.64;67.63;100727.22;5006631;28;20058;-66
2022/11/19 10:59:12;;;;;;;10.25;3.30;;;;;;;11.25;69.35;100741.81;5008340;28;20060;-66
2022/11/19 11:01:42;;;;;;;10.15;3.45;;;;;;;11.38;70.54;100743.63;5010185;28;20049;-66
2022/11/19 11:04:24;;;;;;;10.65;3.58;;;;;;;11.89;68.71;100734.75;5006904;28;20046;-67
2022/11/19 11:07:02;;;;;;;6.30;2.42;;;;;;;11.34;69.25;100750.13;5008864;28;20054;-68
2022/11/19 11:09:41;;;;;;;12.93;3.40;;;;;;;11.68;68.97;100746.72;5010200;28;20057;-67
2022/11/19 11:15:12;;;;;;;8.10;2.97;;;;;;;11.58;67.22;100736.72;5008886;28;20496;-67
2022/11/19 11:17:41;;;;;;;9.95;3.13;;;;;;;10.92;71.63;100740.47;5014252;28;20062;-68
2022/11/19 11:20:17;;;;;;;9.30;2.95;;;;;;;11.65;71.04;100734.34;4993451;28;20077;-67
2022/11/19 11:22:47;;;;;;;7.65;2.67;;;;;;;11.71;70.06;100738.59;5004883;28;20050;-67
2022/11/19 11:25:21;;;;;;;8.70;3.13;;;;;;;11.66;69.67;100736.00;5019361;28;20045;-67
2022/11/19 11:28:07;;;;;;;8.45;2.63;;;;;;;11.74;67.66;100729.69;5002921;28;20509;-67
2022/11/19 11:30:34;;;;;;;7.57;3.10;;;;;;;12.34;66.65;100729.78;5006466;28;20060;-68
2022/11/19 11:33:25;;;;;;;9.10;3.60;;;;;;;13.14;65.04;100727.09;5001080;28;20061;-67
2022/11/19 11:35:52;;;;;;;;;;;;;;;12.97;64.46;100727.06;5001834;28;20058;-68
2022/11/19 11:38:21;;;;;;;14.77;5.35;;;;;;;13.27;63.36;100722.47;5004950;28;20023;-66
2022/11/19 11:41:06;;;;;;;9.07;3.17;;;;;;;12.65;64.13;100729.59;4983858;28;20072;-68
2022/11/19 11:44:02;;;;;;;7.65;2.65;;;;;;;12.22;65.85;100727.63;5003510;28;20057;-67
2022/11/19 11:46:43;;;;;;;9.65;2.88;;;;;;;11.89;66.38;100733.94;5004077;28;20049;-67
2022/11/19 11:49:20;;;;;;;8.20;2.72;;;;;;;13.18;65.27;100735.53;5008859;28;20061;-67
2022/11/19 11:52:02;;;;;;;10.18;3.10;;;;;;;11.96;65.85;100720.47;5003160;28;20054;-68
2022/11/19 11:54:30;;;;;;;8.20;3.55;;;;;;;11.74;68.18;100726.09;5001302;28;20521;-69
2022/11/19 11:57:18;;;;;;;7.90;2.92;;;;;;;12.59;66.27;100720.66;5007532;28;20060;-68
2022/11/19 11:59:46;;;;;;;8.25;2.65;;;;;;;12.37;65.46;100712.53;5008738;28;20049;-68
2022/11/19 12:02:19;;;;;;;10.77;2.95;;;;;;;12.62;65.44;100720.00;5010804;28;20041;-68
2022/11/19 12:04:50;;;;;;;8.23;2.80;;;;;;;13.58;63.63;100711.94;5006024;28;20054;-67